Time;durP1;ratioP1;P1;durP2;ratioP2;P2;SDS_P1;SDS_P2;PMS_P1;PMS_P2;Temp;Humidity;BMP_temperature;BMP_pressure;BME280_temperature;BME280_humidity;BME280_pressure;Samples;Min_cycle;Max_cycle;Signal;HPM_P1;HPM_P2
2021/12/22 00:02:11;;;;;;;24.77;10.35;;;-4.50;99.90;;;;;;4972243;28;20042;-68
2021/12/22 00:04:44;;;;;;;25.67;11.75;;;-4.80;99.90;;;;;;4975060;28;20066;-68
2021/12/22 00:07:12;;;;;;;27.58;10.13;;;-4.90;99.90;;;;;;4988995;28;20080;-68
2021/12/22 00:09:40;;;;;;;30.48;13.13;;;-5.10;99.90;;;;;;4974393;28;20046;-68
2021/12/22 00:12:08;;;;;;;28.33;12.32;;;-5.10;99.90;;;;;;4972515;28;20050;-69
2021/12/22 00:14:35;;;;;;;29.10;11.98;;;-5.00;99.90;;;;;;4972862;28;20424;-69
2021/12/22 00:17:02;;;;;;;34.35;12.32;;;-5.10;99.90;;;;;;4984129;28;20042;-68
2021/12/22 00:19:29;;;;;;;32.83;14.23;;;-5.20;99.90;;;;;;4969942;28;20042;-68
2021/12/22 00:21:56;;;;;;;39.65;15.88;;;-5.00;99.90;;;;;;4986894;28;20042;-68
2021/12/22 00:24:22;;;;;;;31.80;15.60;;;-5.00;99.90;;;;;;4973668;28;20378;-68
2021/12/22 00:26:50;;;;;;;35.47;14.32;;;-5.00;99.90;;;;;;4971727;28;20046;-68
2021/12/22 00:29:17;;;;;;;31.50;13.05;;;-5.00;99.90;;;;;;4970831;28;20057;-68
2021/12/22 00:31:57;;;;;;;28.75;12.63;;;-4.90;99.90;;;;;;4971544;28;20035;-68
2021/12/22 00:34:26;;;;;;;28.25;11.98;;;-5.00;99.90;;;;;;4974037;28;20078;-68
2021/12/22 00:36:53;;;;;;;30.67;12.15;;;-4.80;99.90;;;;;;4972195;28;20053;-68
2021/12/22 00:39:20;;;;;;;25.98;12.07;;;-5.00;99.90;;;;;;4968745;28;20092;-68
2021/12/22 00:41:49;;;;;;;30.42;13.43;;;-5.10;99.90;;;;;;4975119;28;20054;-68
2021/12/22 00:44:16;;;;;;;23.58;11.70;;;-5.20;99.90;;;;;;4973191;28;20105;-68
2021/12/22 00:46:43;;;;;;;26.85;11.05;;;-5.30;99.90;;;;;;4970106;28;20045;-68
2021/12/22 00:49:10;;;;;;;30.95;12.10;;;-5.40;99.90;;;;;;4966810;28;20139;-68
2021/12/22 00:51:37;;;;;;;31.88;13.13;;;-5.50;99.90;;;;;;4967257;28;20046;-68
2021/12/22 00:54:03;;;;;;;30.23;13.85;;;-5.50;99.90;;;;;;4971089;28;20065;-68
2021/12/22 00:56:31;;;;;;;28.00;14.10;;;-5.60;99.90;;;;;;4969971;28;20042;-68
2021/12/22 00:58:58;;;;;;;31.70;14.15;;;-5.60;99.90;;;;;;4975254;28;20046;-67
2021/12/22 01:01:24;;;;;;;31.52;13.02;;;-5.60;99.90;;;;;;4970480;28;20046;-68
2021/12/22 01:03:51;;;;;;;27.48;12.20;;;-5.70;99.90;;;;;;4975447;28;20054;-68
2021/12/22 01:06:18;;;;;;;27.05;12.40;;;-5.70;99.90;;;;;;4987961;28;20144;-67
2021/12/22 01:08:45;;;;;;;40.42;15.25;;;-5.50;99.90;;;;;;4957007;28;20061;-67
2021/12/22 01:11:12;;;;;;;38.28;15.82;;;-5.40;99.90;;;;;;4975832;28;20427;-68
2021/12/22 01:13:39;;;;;;;41.72;16.50;;;-5.40;99.90;;;;;;4974691;28;20137;-70
2021/12/22 01:16:05;;;;;;;35.22;15.20;;;-5.60;99.90;;;;;;4972090;28;20050;-67
2021/12/22 01:18:34;;;;;;;28.45;12.48;;;-5.70;99.90;;;;;;4964203;28;20054;-68
2021/12/22 01:23:48;;;;;;;36.90;15.98;;;-5.70;99.90;;;;;;4980967;28;20061;-68
2021/12/22 01:26:15;;;;;;;40.53;14.80;;;-5.70;99.90;;;;;;4972902;28;20788;-68
2021/12/22 01:28:42;;;;;;;45.90;16.90;;;-5.80;99.90;;;;;;4970371;28;20054;-69
2021/12/22 01:31:14;;;;;;;33.92;15.52;;;-5.80;99.90;;;;;;4968521;28;20054;-69
2021/12/22 01:33:42;;;;;;;44.03;15.85;;;-5.80;99.90;;;;;;4972321;28;20793;-69
2021/12/22 01:36:09;;;;;;;31.42;15.18;;;-5.90;99.90;;;;;;4970278;28;20034;-69
2021/12/22 01:38:36;;;;;;;36.85;18.02;;;-5.80;99.90;;;;;;4987086;28;20050;-67
2021/12/22 01:41:03;;;;;;;50.15;21.67;;;-5.80;99.90;;;;;;4974268;28;20118;-68
2021/12/22 01:43:30;;;;;;;55.10;22.63;;;-5.80;99.90;;;;;;4970375;28;20448;-67
2021/12/22 01:51:29;;;;;;;49.50;21.50;;;-5.40;99.90;;;;;;4989782;28;20058;-68
2021/12/22 01:54:03;;;;;;;46.92;18.85;;;-5.50;99.90;;;;;;4978083;28;20050;-70
2021/12/22 01:56:33;;;;;;;35.55;17.45;;;-5.50;99.90;;;;;;4961748;28;20073;-70
2021/12/22 01:59:04;;;;;;;43.47;20.10;;;-5.60;99.90;;;;;;4958352;28;20042;-69
2021/12/22 02:01:35;;;;;;;54.08;23.77;;;-5.50;99.90;;;;;;4958006;28;20042;-69
2021/12/22 02:04:05;;;;;;;49.70;20.92;;;-5.60;99.90;;;;;;4955382;28;20050;-69
2021/12/22 02:06:32;;;;;;;53.00;23.88;;;-5.60;99.90;;;;;;4955558;28;20082;-69
2021/12/22 02:08:59;;;;;;;48.83;22.42;;;-5.60;99.90;;;;;;4955297;28;20046;-69
2021/12/22 02:11:26;;;;;;;50.63;22.50;;;-5.60;99.90;;;;;;4945684;28;20051;-69
2021/12/22 02:14:00;;;;;;;57.83;25.60;;;-5.60;99.90;;;;;;4958883;28;20089;-69
2021/12/22 02:16:32;;;;;;;60.30;26.65;;;-5.60;99.90;;;;;;4956608;28;20428;-69
2021/12/22 02:19:00;;;;;;;55.03;23.15;;;-5.60;99.90;;;;;;4957601;28;20059;-69
2021/12/22 02:21:31;;;;;;;48.25;21.98;;;-5.70;99.90;;;;;;4957618;28;20053;-69
2021/12/22 02:23:59;;;;;;;59.65;24.45;;;-5.70;99.90;;;;;;4959663;28;20050;-69
2021/12/22 02:29:04;;;;;;;52.45;24.77;;;-5.60;99.90;;;;;;4952945;28;20465;-69
2021/12/22 02:31:39;;;;;;;61.78;23.30;;;-5.50;99.90;;;;;;4957575;28;20945;-69
2021/12/22 02:34:13;;;;;;;47.60;21.73;;;-5.40;99.90;;;;;;4958209;28;20051;-69
2021/12/22 02:36:41;;;;;;;41.05;18.73;;;-5.40;99.90;;;;;;4956550;28;20429;-69
2021/12/22 02:39:09;;;;;;;47.80;21.50;;;-5.50;99.90;;;;;;4955978;28;20062;-69
2021/12/22 02:41:38;;;;;;;53.95;23.95;;;-5.60;99.90;;;;;;4947241;28;20117;-69
2021/12/22 02:44:08;;;;;;;55.00;23.17;;;-5.50;99.90;;;;;;4953593;28;20043;-70
2021/12/22 02:46:39;;;;;;;63.92;26.30;;;-5.50;99.90;;;;;;4951156;28;20746;-69
2021/12/22 02:49:08;;;;;;;61.67;25.40;;;-5.50;99.90;;;;;;4957727;28;20610;-69
2021/12/22 02:51:36;;;;;;;66.43;25.77;;;-5.50;99.90;;;;;;4955664;28;20047;-69
2021/12/22 02:54:13;;;;;;;56.05;25.08;;;-5.40;99.90;;;;;;4957089;28;20054;-69
2021/12/22 02:56:55;;;;;;;50.88;22.60;;;-5.30;99.90;;;;;;4953661;28;20051;-69
2021/12/22 02:59:48;;;;;;;54.30;23.08;;;-5.30;99.90;;;;;;4946279;28;20526;-69
2021/12/22 03:02:34;;;;;;;47.67;23.25;;;-5.30;99.90;;;;;;4969944;28;20050;-69
2021/12/22 03:05:03;;;;;;;50.95;23.25;;;-5.30;99.90;;;;;;4964145;28;20715;-69
2021/12/22 03:07:31;;;;;;;55.67;24.95;;;-5.30;99.90;;;;;;4971774;28;20054;-70
2021/12/22 03:10:04;;;;;;;56.88;25.25;;;-5.20;99.90;;;;;;4975542;28;20062;-70
2021/12/22 03:12:34;;;;;;;52.90;24.85;;;-5.20;99.90;;;;;;4957005;28;20051;-70
2021/12/22 03:15:07;;;;;;;43.78;23.73;;;-5.30;99.90;;;;;;4955067;28;20113;-70
2021/12/22 03:17:35;;;;;;;55.08;25.52;;;-5.30;99.90;;;;;;4968907;28;20524;-70
2021/12/22 03:20:03;;;;;;;46.83;23.85;;;-5.30;99.90;;;;;;4974643;28;20050;-70
2021/12/22 03:22:35;;;;;;;50.00;21.58;;;-5.40;99.90;;;;;;4952957;28;20055;-70
2021/12/22 03:25:04;;;;;;;50.78;23.13;;;-5.40;99.90;;;;;;4948651;28;20078;-70
2021/12/22 03:27:31;;;;;;;46.20;21.65;;;-5.50;99.90;;;;;;4928690;28;20561;-70
2021/12/22 03:29:58;;;;;;;54.97;22.42;;;-5.50;99.90;;;;;;4954374;28;20114;-70
2021/12/22 03:32:25;;;;;;;50.55;23.70;;;-5.50;99.90;;;;;;4959003;28;20042;-70
2021/12/22 03:34:51;;;;;;;42.53;20.67;;;-5.70;99.90;;;;;;4964811;28;20055;-70
2021/12/22 03:37:18;;;;;;;52.55;21.70;;;-5.70;99.90;;;;;;4954791;28;20077;-70
2021/12/22 03:39:45;;;;;;;46.78;21.40;;;-5.70;99.90;;;;;;4952622;28;20051;-70
2021/12/22 03:42:12;;;;;;;45.88;20.83;;;-5.70;99.90;;;;;;4954744;28;20098;-70
2021/12/22 03:44:39;;;;;;;43.88;21.17;;;-5.80;99.90;;;;;;4952734;28;21336;-70
2021/12/22 03:47:08;;;;;;;50.95;22.02;;;-5.80;99.90;;;;;;4954609;28;20472;-69
2021/12/22 03:49:35;;;;;;;47.25;21.60;;;-5.80;99.90;;;;;;4957066;28;20062;-69
2021/12/22 03:52:04;;;;;;;46.05;23.10;;;-5.80;99.90;;;;;;4952997;28;20050;-69
2021/12/22 03:54:31;;;;;;;48.90;23.67;;;-5.80;99.90;;;;;;4952039;28;20367;-69
2021/12/22 03:56:58;;;;;;;54.15;22.45;;;-5.90;99.90;;;;;;4965507;28;20046;-69
2021/12/22 03:59:26;;;;;;;43.88;22.33;;;-5.90;99.90;;;;;;4981101;28;20050;-69
2021/12/22 04:01:53;;;;;;;47.25;23.20;;;-5.90;99.90;;;;;;4965147;28;20066;-69
2021/12/22 04:04:20;;;;;;;45.70;23.20;;;-6.00;99.90;;;;;;4954251;28;20316;-69
2021/12/22 04:06:48;;;;;;;46.22;20.10;;;-6.00;99.90;;;;;;4968203;28;20125;-69
2021/12/22 04:09:15;;;;;;;38.92;21.27;;;-6.10;99.90;;;;;;4939411;28;20063;-69
2021/12/22 04:11:43;;;;;;;49.63;23.00;;;-6.10;99.90;;;;;;4939091;28;20093;-69
2021/12/22 04:14:12;;;;;;;46.47;22.13;;;-6.10;99.90;;;;;;4954753;28;20484;-69
2021/12/22 04:16:39;;;;;;;44.78;22.20;;;-6.20;99.90;;;;;;4953059;28;20113;-69
2021/12/22 04:19:05;;;;;;;46.30;22.42;;;-6.30;99.90;;;;;;4951757;28;20046;-69
2021/12/22 04:21:32;;;;;;;46.78;22.85;;;-6.30;99.90;;;;;;4939550;28;20239;-69
2021/12/22 04:24:01;;;;;;;51.85;22.80;;;-6.40;99.90;;;;;;4969002;28;20059;-69
2021/12/22 04:26:31;;;;;;;46.95;22.50;;;-6.30;99.90;;;;;;4951938;28;20051;-69
2021/12/22 04:28:58;;;;;;;52.72;24.45;;;-6.40;99.90;;;;;;4951204;28;20086;-69
2021/12/22 04:31:25;;;;;;;44.63;23.35;;;-6.40;99.90;;;;;;4950424;28;20716;-69
2021/12/22 04:33:52;;;;;;;48.97;22.83;;;-6.40;99.90;;;;;;4967163;28;20046;-69
2021/12/22 04:36:19;;;;;;;52.10;24.98;;;-6.30;99.90;;;;;;4953295;28;20053;-68
2021/12/22 04:38:46;;;;;;;54.70;24.23;;;-6.20;99.90;;;;;;4953152;28;20039;-69
2021/12/22 04:41:12;;;;;;;45.17;22.27;;;-6.30;99.90;;;;;;4952313;28;20058;-70
2021/12/22 04:43:39;;;;;;;52.08;23.95;;;-6.30;99.90;;;;;;4955737;28;20099;-69
2021/12/22 04:46:06;;;;;;;52.97;23.40;;;-6.20;99.90;;;;;;4952618;28;20484;-69
2021/12/22 04:48:35;;;;;;;51.22;23.60;;;-6.20;99.90;;;;;;4952958;28;20090;-69
2021/12/22 04:51:12;;;;;;;52.35;23.98;;;-6.20;99.90;;;;;;4952957;28;20042;-69
2021/12/22 04:53:50;;;;;;;44.60;22.27;;;-6.40;99.90;;;;;;4955508;28;20046;-69
2021/12/22 04:56:16;;;;;;;46.45;22.75;;;-6.40;99.90;;;;;;4950486;28;20047;-69
2021/12/22 04:58:43;;;;;;;45.00;21.58;;;-6.30;99.90;;;;;;4953134;28;20372;-69
2021/12/22 05:01:10;;;;;;;46.35;21.42;;;-6.20;99.90;;;;;;4951856;28;20055;-69
2021/12/22 05:03:41;;;;;;;53.35;23.10;;;-6.30;99.90;;;;;;4952948;28;20135;-69
2021/12/22 05:06:08;;;;;;;52.25;24.33;;;-6.20;99.90;;;;;;4944427;28;20529;-69
2021/12/22 05:08:34;;;;;;;53.30;22.85;;;-6.20;99.90;;;;;;4949647;28;20102;-69
2021/12/22 05:11:01;;;;;;;47.88;24.13;;;-6.10;99.90;;;;;;4932410;28;20300;-69
2021/12/22 05:13:29;;;;;;;49.25;23.50;;;-6.10;99.90;;;;;;4954322;28;20046;-68
2021/12/22 05:15:56;;;;;;;53.45;24.15;;;-6.10;99.90;;;;;;4949557;28;20050;-69
2021/12/22 05:18:35;;;;;;;52.40;23.33;;;-6.20;99.90;;;;;;4951566;28;20105;-69
2021/12/22 05:21:02;;;;;;;49.83;23.52;;;-6.20;99.90;;;;;;4953244;28;20791;-69
2021/12/22 05:23:29;;;;;;;54.35;25.90;;;-6.20;99.90;;;;;;4953598;28;20051;-69
2021/12/22 05:25:55;;;;;;;51.58;24.45;;;-6.10;99.90;;;;;;4937377;28;20114;-69
2021/12/22 05:28:22;;;;;;;54.45;23.73;;;-6.10;99.90;;;;;;4948508;28;20058;-70
2021/12/22 05:30:49;;;;;;;49.53;23.58;;;-6.20;99.90;;;;;;4940458;28;20842;-70
2021/12/22 05:33:16;;;;;;;58.28;23.95;;;-6.10;99.90;;;;;;4948642;28;20036;-70
2021/12/22 05:35:43;;;;;;;49.33;23.40;;;-6.20;99.90;;;;;;4950407;28;20054;-70
2021/12/22 05:38:10;;;;;;;47.10;22.58;;;-6.30;99.90;;;;;;4952423;28;20039;-70
2021/12/22 05:40:37;;;;;;;56.63;23.77;;;-6.40;99.90;;;;;;4965537;28;20241;-70
2021/12/22 05:43:07;;;;;;;56.65;23.85;;;-6.30;99.90;;;;;;4950872;28;20464;-70
2021/12/22 05:45:34;;;;;;;47.13;24.00;;;-6.30;99.90;;;;;;4931144;28;20097;-70
2021/12/22 05:48:01;;;;;;;49.42;22.60;;;-6.40;99.90;;;;;;4949822;28;20047;-70
2021/12/22 05:50:28;;;;;;;46.88;22.77;;;-6.50;99.90;;;;;;4951964;28;20047;-69
2021/12/22 05:52:54;;;;;;;48.88;23.20;;;-6.60;99.90;;;;;;4951550;28;20050;-69
2021/12/22 05:55:21;;;;;;;42.85;20.83;;;-6.80;99.90;;;;;;4955233;28;20079;-69
2021/12/22 05:57:48;;;;;;;57.28;23.85;;;-6.90;99.90;;;;;;4962765;28;20050;-69
2021/12/22 06:00:15;;;;;;;49.17;21.90;;;-6.70;99.90;;;;;;4952712;28;20051;-69
2021/12/22 06:02:42;;;;;;;49.30;21.58;;;-6.60;99.90;;;;;;4953761;28;20055;-69
2021/12/22 06:05:10;;;;;;;47.17;23.73;;;-6.50;99.90;;;;;;4949392;28;20090;-69
2021/12/22 06:07:37;;;;;;;54.72;25.08;;;-6.50;99.90;;;;;;4953428;28;20047;-69
2021/12/22 06:10:05;;;;;;;49.22;22.25;;;-6.40;99.90;;;;;;4966111;28;20266;-69
2021/12/22 06:12:32;;;;;;;53.45;23.80;;;-6.40;99.90;;;;;;4950724;28;20050;-69
2021/12/22 06:14:59;;;;;;;56.97;24.42;;;-6.30;99.90;;;;;;4950612;28;20054;-69
2021/12/22 06:17:26;;;;;;;49.13;23.25;;;-6.30;99.90;;;;;;4948501;28;20268;-69
2021/12/22 06:19:53;;;;;;;49.25;22.52;;;-6.20;99.90;;;;;;4933430;28;20050;-69
2021/12/22 06:22:20;;;;;;;54.33;24.48;;;-6.40;99.90;;;;;;4946486;28;20050;-69
2021/12/22 06:24:47;;;;;;;50.90;23.33;;;-6.40;99.90;;;;;;4950409;28;20038;-69
2021/12/22 06:27:14;;;;;;;52.90;23.40;;;-6.50;99.90;;;;;;4949860;28;20055;-69
2021/12/22 06:29:41;;;;;;;47.70;22.75;;;-6.60;99.90;;;;;;4951147;28;20143;-69
2021/12/22 06:32:09;;;;;;;47.45;22.50;;;-6.70;99.90;;;;;;4952046;28;20724;-69
2021/12/22 06:34:35;;;;;;;45.53;22.85;;;-6.70;99.90;;;;;;4950564;28;20046;-69
2021/12/22 06:37:02;;;;;;;41.60;22.17;;;-6.80;99.90;;;;;;4951615;28;20725;-70
2021/12/22 06:39:29;;;;;;;53.67;23.65;;;-6.80;99.90;;;;;;4953959;28;20470;-69
2021/12/22 06:41:56;;;;;;;47.47;22.92;;;-6.80;99.90;;;;;;4953670;28;20497;-69
2021/12/22 06:44:23;;;;;;;42.78;23.08;;;-6.90;99.90;;;;;;4951978;28;20549;-69
2021/12/22 06:46:51;;;;;;;53.22;23.50;;;-6.80;99.90;;;;;;4955508;28;20512;-69
2021/12/22 06:49:18;;;;;;;47.25;24.38;;;-6.70;99.90;;;;;;4972378;28;20059;-69
2021/12/22 06:51:45;;;;;;;61.00;29.65;;;-6.80;99.90;;;;;;4956298;28;20046;-69
2021/12/22 06:54:13;;;;;;;58.95;27.67;;;-6.80;99.90;;;;;;4952523;28;20035;-69
2021/12/22 06:56:40;;;;;;;62.22;30.95;;;-6.80;99.90;;;;;;4964856;28;20053;-69
2021/12/22 06:59:07;;;;;;;66.10;32.65;;;-6.90;99.90;;;;;;4983091;28;20053;-68
2021/12/22 07:01:35;;;;;;;66.22;33.05;;;-6.70;99.90;;;;;;4992148;28;20524;-68
2021/12/22 07:04:03;;;;;;;67.05;33.10;;;-6.60;99.90;;;;;;4977516;28;20684;-68
2021/12/22 07:06:31;;;;;;;63.70;31.77;;;-6.70;99.90;;;;;;4973802;28;20119;-68
2021/12/22 07:08:59;;;;;;;63.10;30.70;;;-6.70;99.90;;;;;;4955201;28;20063;-68
2021/12/22 07:11:26;;;;;;;61.83;30.42;;;-6.70;99.90;;;;;;4954928;28;20050;-69
2021/12/22 07:13:53;;;;;;;63.85;29.98;;;-6.60;99.90;;;;;;4957167;28;20047;-69
2021/12/22 07:16:21;;;;;;;60.63;27.95;;;-6.70;99.90;;;;;;4951403;28;20867;-69
2021/12/22 07:18:52;;;;;;;67.03;28.65;;;-6.60;99.90;;;;;;4970262;28;20050;-69
2021/12/22 07:21:19;;;;;;;61.25;28.58;;;-6.60;99.90;;;;;;4952663;28;20359;-69
2021/12/22 07:23:45;;;;;;;73.78;33.33;;;-6.60;99.90;;;;;;4954618;28;20163;-69
2021/12/22 07:26:15;;;;;;;79.07;38.33;;;-6.70;99.90;;;;;;4953883;28;20066;-69
2021/12/22 07:28:43;;;;;;;70.53;33.85;;;-6.50;99.90;;;;;;4953234;28;20039;-70
2021/12/22 07:31:10;;;;;;;66.32;33.00;;;-6.50;99.90;;;;;;4959126;28;20054;-70
2021/12/22 07:33:37;;;;;;;69.60;33.53;;;-6.50;99.90;;;;;;4964009;28;20066;-69
2021/12/22 07:36:05;;;;;;;76.53;34.63;;;-6.30;99.90;;;;;;4983215;28;20097;-70
2021/12/22 07:38:46;;;;;;;73.75;36.30;;;-6.30;99.90;;;;;;4995897;28;20042;-69
2021/12/22 07:41:13;;;;;;;81.22;41.03;;;-6.20;99.90;;;;;;4993171;28;20132;-69
2021/12/22 07:43:40;;;;;;;75.43;34.72;;;-6.30;99.90;;;;;;4976115;28;20432;-69
2021/12/22 07:46:08;;;;;;;88.18;36.97;;;-6.40;99.90;;;;;;4967076;28;20112;-70
2021/12/22 07:48:36;;;;;;;85.60;38.92;;;-6.30;99.90;;;;;;4955589;28;20834;-70
2021/12/22 07:51:03;;;;;;;81.82;36.70;;;-6.20;99.90;;;;;;4957364;28;20062;-70
2021/12/22 07:53:30;;;;;;;77.72;34.95;;;-6.20;99.90;;;;;;4955597;28;20057;-69
2021/12/22 07:55:57;;;;;;;103.53;46.30;;;-6.00;99.90;;;;;;4956432;28;20054;-71
2021/12/22 07:58:25;;;;;;;94.10;45.58;;;-6.00;99.90;;;;;;4954630;28;20050;-68
2021/12/22 08:00:53;;;;;;;94.20;43.58;;;-6.10;99.90;;;;;;4958216;28;20109;-68
2021/12/22 08:03:21;;;;;;;87.05;41.00;;;-6.10;99.90;;;;;;4953530;28;20047;-69
2021/12/22 08:06:07;;;;;;;79.80;39.28;;;-6.10;99.90;;;;;;4952686;28;20165;-68
2021/12/22 08:08:34;;;;;;;79.47;38.53;;;-6.00;99.90;;;;;;4949601;28;20051;-68
2021/12/22 08:11:01;;;;;;;80.55;38.53;;;-5.90;99.90;;;;;;4956246;28;20722;-69
2021/12/22 08:13:28;;;;;;;75.25;38.60;;;-5.80;99.90;;;;;;4954921;28;20046;-68
2021/12/22 08:15:55;;;;;;;79.38;38.17;;;-5.80;99.90;;;;;;4970752;28;20054;-68
2021/12/22 08:18:23;;;;;;;80.35;38.72;;;-5.70;99.90;;;;;;4959501;28;20050;-68
2021/12/22 08:20:51;;;;;;;73.15;37.53;;;-5.60;99.90;;;;;;4988196;28;20074;-68
2021/12/22 08:23:18;;;;;;;81.72;37.70;;;-5.70;99.90;;;;;;4957809;28;20054;-68
2021/12/22 08:25:46;;;;;;;74.60;36.30;;;-5.60;99.90;;;;;;4954943;28;20445;-69
2021/12/22 08:28:14;;;;;;;69.80;35.90;;;-5.40;99.90;;;;;;4956960;28;20142;-68
2021/12/22 08:30:41;;;;;;;69.63;32.53;;;-5.40;99.90;;;;;;4954098;28;20047;-68
2021/12/22 08:33:20;;;;;;;65.45;32.28;;;-5.30;99.90;;;;;;4937970;28;20145;-68
2021/12/22 08:38:50;;;;;;;102.55;46.95;;;-5.20;99.90;;;;;;4954493;28;20058;-68
2021/12/22 08:41:31;;;;;;;85.13;39.25;;;-5.10;99.90;;;;;;4952003;28;20049;-68
2021/12/22 08:44:01;;;;;;;75.57;33.60;;;-4.90;99.90;;;;;;4948094;28;20061;-68
2021/12/22 08:46:29;;;;;;;80.32;37.78;;;-4.80;99.90;;;;;;4950578;28;20055;-68
2021/12/22 08:48:56;;;;;;;79.78;38.63;;;-4.70;99.90;;;;;;4951088;28;20051;-69
2021/12/22 08:51:23;;;;;;;79.30;34.63;;;-4.60;99.90;;;;;;4936930;28;20102;-69
2021/12/22 08:53:53;;;;;;;62.95;26.92;;;-4.40;99.90;;;;;;4953792;28;20102;-68
2021/12/22 08:56:20;;;;;;;70.80;34.25;;;-4.20;99.90;;;;;;4956105;28;20101;-68
2021/12/22 08:58:47;;;;;;;60.17;30.10;;;-3.90;99.90;;;;;;4954916;28;20042;-68
2021/12/22 09:01:14;;;;;;;61.70;34.75;;;-3.60;99.90;;;;;;4955856;28;20066;-67
2021/12/22 09:03:41;;;;;;;99.15;35.58;;;-3.50;99.90;;;;;;4969281;28;20232;-69
2021/12/22 09:06:08;;;;;;;53.67;29.23;;;-3.30;99.90;;;;;;4954962;28;20042;-69
2021/12/22 09:08:35;;;;;;;58.17;35.00;;;-3.30;99.90;;;;;;4954819;28;20109;-68
2021/12/22 09:11:02;;;;;;;62.97;35.38;;;-3.30;99.90;;;;;;4954087;28;20130;-68
2021/12/22 09:13:29;;;;;;;59.78;35.15;;;-3.20;99.90;;;;;;4937993;28;20513;-68
2021/12/22 09:15:56;;;;;;;54.70;33.42;;;-3.20;99.90;;;;;;4951759;28;20038;-68
2021/12/22 09:18:23;;;;;;;54.03;31.15;;;-2.90;99.90;;;;;;4953186;28;20117;-68
2021/12/22 09:20:50;;;;;;;49.63;28.92;;;-2.80;99.90;;;;;;4947313;28;20050;-68
2021/12/22 09:23:17;;;;;;;43.45;26.73;;;-2.70;99.90;;;;;;4952920;28;20429;-68
2021/12/22 09:25:43;;;;;;;41.58;24.30;;;-2.50;99.90;;;;;;4936044;28;20081;-68
2021/12/22 09:28:12;;;;;;;37.00;24.30;;;-2.30;99.90;;;;;;4936754;28;20122;-68
2021/12/22 09:30:41;;;;;;;35.78;21.23;;;-2.20;99.90;;;;;;4934606;28;20051;-68
2021/12/22 09:33:14;;;;;;;35.85;24.42;;;-2.10;99.90;;;;;;4937832;28;20047;-68
2021/12/22 09:35:43;;;;;;;39.97;27.35;;;-2.00;99.90;;;;;;4953661;28;20039;-68
2021/12/22 09:38:11;;;;;;;33.80;25.40;;;-2.00;99.90;;;;;;4954137;28;20082;-68
2021/12/22 09:40:38;;;;;;;37.95;27.50;;;-1.90;99.90;;;;;;4954483;28;20050;-69
2021/12/22 09:43:06;;;;;;;45.05;28.75;;;-1.90;99.90;;;;;;4954422;28;20051;-69
2021/12/22 09:45:35;;;;;;;36.35;25.77;;;-1.80;99.90;;;;;;4951257;28;20062;-68
2021/12/22 09:50:50;;;;;;;36.90;24.65;;;-1.80;99.90;;;;;;4955511;28;20066;-70
2021/12/22 09:53:21;;;;;;;32.70;25.25;;;-1.70;99.90;;;;;;4950496;28;20047;-71
2021/12/22 09:55:49;;;;;;;26.80;23.40;;;-1.60;99.90;;;;;;4943504;28;20051;-70
2021/12/22 09:58:17;;;;;;;31.50;24.75;;;-1.50;99.90;;;;;;4950251;28;20445;-71
2021/12/22 10:00:46;;;;;;;30.83;25.20;;;-1.50;99.90;;;;;;4953506;28;20042;-71
2021/12/22 10:03:13;;;;;;;28.23;22.55;;;-1.50;99.90;;;;;;4970623;28;20525;-71
2021/12/22 10:05:42;;;;;;;35.20;25.45;;;-1.50;99.90;;;;;;4952714;28;20055;-71
2021/12/22 10:08:10;;;;;;;30.27;22.98;;;-1.40;99.90;;;;;;4955570;28;20069;-71
2021/12/22 10:10:39;;;;;;;30.13;23.17;;;-1.40;99.90;;;;;;4955171;28;20073;-68
2021/12/22 10:13:13;;;;;;;30.75;24.60;;;-1.30;99.90;;;;;;4960206;28;20050;-68
2021/12/22 10:15:40;;;;;;;29.23;24.30;;;-1.20;99.90;;;;;;4954076;28;20054;-68
2021/12/22 10:18:17;;;;;;;27.98;22.13;;;-1.30;99.90;;;;;;4972797;28;20599;-69
2021/12/22 10:20:46;;;;;;;31.02;23.98;;;-1.30;99.90;;;;;;4972658;28;20073;-68
2021/12/22 10:23:26;;;;;;;26.52;21.77;;;-1.30;99.90;;;;;;4960113;28;20074;-67
2021/12/22 10:25:56;;;;;;;32.35;24.58;;;-1.30;99.90;;;;;;4955756;28;20101;-68
2021/12/22 10:28:25;;;;;;;33.53;23.25;;;-1.20;99.90;;;;;;4953839;28;20520;-67
2021/12/22 10:30:58;;;;;;;24.23;18.92;;;-1.20;99.90;;;;;;4943876;28;20050;-67
2021/12/22 10:33:27;;;;;;;24.30;21.33;;;-1.00;99.90;;;;;;4949863;28;20806;-67
2021/12/22 10:35:59;;;;;;;25.00;20.00;;;-1.00;99.90;;;;;;4951259;28;20039;-67
2021/12/22 10:38:28;;;;;;;28.80;21.92;;;-0.90;99.90;;;;;;4954374;28;20054;-67
2021/12/22 10:41:03;;;;;;;24.02;21.67;;;-0.60;99.90;;;;;;4959077;28;20050;-66
2021/12/22 10:43:31;;;;;;;;;;;-0.70;99.90;;;;;;4961234;28;20101;-66
2021/12/22 10:46:03;;;;;;;29.65;25.75;;;-0.70;99.90;;;;;;4972161;28;19922;-66
2021/12/22 10:51:28;;;;;;;28.98;23.90;;;-0.60;99.90;;;;;;4957279;28;20051;-66
2021/12/22 10:53:56;;;;;;;30.92;24.83;;;-0.50;99.90;;;;;;4956410;28;20046;-66
2021/12/22 10:56:35;;;;;;;28.10;25.15;;;-0.50;99.90;;;;;;4954765;28;20678;-66
2021/12/22 10:59:09;;;;;;;26.50;22.23;;;-0.50;99.90;;;;;;4968806;28;20077;-67
2021/12/22 11:01:42;;;;;;;28.02;24.85;;;-0.40;99.90;;;;;;4956404;28;20050;-68
2021/12/22 11:04:17;;;;;;;29.98;24.20;;;-0.50;99.90;;;;;;4962684;28;20059;-66
2021/12/22 11:06:44;;;;;;;26.67;23.17;;;-0.60;99.90;;;;;;4953217;28;20051;-66
2021/12/22 11:09:16;;;;;;;29.13;23.90;;;-0.50;99.90;;;;;;4954401;28;20213;-66
2021/12/22 11:11:56;;;;;;;25.98;22.95;;;-0.50;99.90;;;;;;4956490;28;20054;-67
2021/12/22 11:14:29;;;;;;;28.55;21.73;;;-0.40;99.90;;;;;;4956567;28;20050;-68
2021/12/22 11:17:06;;;;;;;26.48;23.45;;;-0.40;99.90;;;;;;4955850;28;20572;-68
2021/12/22 11:19:54;;;;;;;27.70;21.08;;;-0.40;99.90;;;;;;4957905;28;20525;-70
2021/12/22 11:22:35;;;;;;;28.83;23.33;;;-0.20;99.90;;;;;;4948865;28;20182;-70
2021/12/22 11:25:05;;;;;;;28.60;23.70;;;-0.20;99.90;;;;;;4930915;28;20043;-70
2021/12/22 11:27:36;;;;;;;29.52;22.58;;;-0.20;99.90;;;;;;4951860;28;20283;-71
2021/12/22 11:30:07;;;;;;;24.75;20.95;;;-0.30;99.90;;;;;;4955014;28;20059;-70
2021/12/22 11:32:34;;;;;;;32.80;25.05;;;-0.50;99.90;;;;;;4956274;28;20109;-70
2021/12/22 11:35:04;;;;;;;31.88;22.95;;;-0.40;99.90;;;;;;4955509;28;20633;-70
2021/12/22 11:37:31;;;;;;;30.98;23.75;;;-0.40;99.90;;;;;;4953836;28;20072;-69
2021/12/22 11:39:59;;;;;;;30.17;22.42;;;-0.40;99.90;;;;;;4936099;28;20070;-69
2021/12/22 11:42:31;;;;;;;32.17;20.92;;;-0.40;99.90;;;;;;4947205;28;20050;-70
2021/12/22 11:45:16;;;;;;;68.85;36.63;;;-0.40;99.90;;;;;;4939020;28;20059;-70
2021/12/22 11:47:44;;;;;;;;;;;-0.30;99.90;;;;;;4953745;28;20521;-70
2021/12/22 11:50:21;;;;;;;31.65;21.70;;;-0.40;99.90;;;;;;4953868;28;19934;-70
2021/12/22 11:53:00;;;;;;;29.25;18.33;;;-0.30;99.90;;;;;;4955768;28;20061;-70
2021/12/22 11:55:38;;;;;;;32.78;23.10;;;-0.40;99.90;;;;;;4951287;28;20046;-70
2021/12/22 11:58:20;;;;;;;31.17;20.75;;;-0.40;99.90;;;;;;4949545;28;20043;-69
2021/12/22 12:00:50;;;;;;;30.85;21.00;;;-0.40;99.90;;;;;;4942078;28;20085;-70
2021/12/22 12:03:25;;;;;;;29.95;18.13;;;-0.20;99.90;;;;;;4974252;28;20580;-70
2021/12/22 12:06:06;;;;;;;;;;;0.00;99.90;;;;;;4965683;28;20726;-70
2021/12/22 12:08:37;;;;;;;28.10;20.05;;;0.00;99.90;;;;;;4954976;28;19922;-70
2021/12/22 12:11:06;;;;;;;30.95;20.58;;;-0.10;99.90;;;;;;4957177;28;20043;-70
2021/12/22 12:13:38;;;;;;;37.30;22.23;;;-0.10;99.90;;;;;;4954597;28;20047;-70
2021/12/22 12:21:48;;;;;;;35.05;22.20;;;-0.30;99.90;;;;;;4967662;28;20069;-69
2021/12/22 12:24:43;;;;;;;34.03;21.80;;;-0.30;99.90;;;;;;4946397;28;20039;-68
2021/12/22 12:27:32;;;;;;;33.47;20.65;;;-0.20;99.90;;;;;;4964689;28;20500;-68
2021/12/22 12:30:12;;;;;;;36.30;23.05;;;-0.30;99.90;;;;;;4951550;28;20674;-68
2021/12/22 12:32:39;;;;;;;31.90;22.10;;;-0.20;99.90;;;;;;4951847;28;20374;-69
2021/12/22 12:35:18;;;;;;;32.13;20.10;;;-0.30;99.90;;;;;;4949586;28;20046;-68
2021/12/22 12:38:17;;;;;;;31.80;20.55;;;-0.20;99.90;;;;;;4938248;28;20047;-68
2021/12/22 12:41:11;;;;;;;33.53;21.63;;;-0.20;99.90;;;;;;4934082;28;20050;-69
2021/12/22 12:43:49;;;;;;;32.40;20.05;;;-0.20;99.90;;;;;;4953359;28;20137;-69
2021/12/22 12:46:39;;;;;;;31.27;20.77;;;0.10;99.90;;;;;;4950827;28;20045;-72
2021/12/22 12:49:11;;;;;;;29.25;20.98;;;0.10;99.90;;;;;;4951702;28;20069;-70
2021/12/22 12:51:40;;;;;;;36.40;22.75;;;0.10;99.90;;;;;;4954740;28;20054;-70
2021/12/22 12:54:16;;;;;;;33.25;21.38;;;0.00;99.90;;;;;;4947367;28;20046;-70
2021/12/22 12:56:54;;;;;;;30.35;21.17;;;0.00;99.90;;;;;;4958757;28;20045;-70
2021/12/22 12:59:48;;;;;;;28.67;19.65;;;0.00;99.90;;;;;;4973736;28;20169;-71
2021/12/22 13:02:26;;;;;;;31.33;20.02;;;0.10;99.90;;;;;;4992109;28;20042;-70
2021/12/22 13:04:56;;;;;;;33.38;21.17;;;0.00;99.90;;;;;;4988263;28;20136;-70
2021/12/22 13:07:23;;;;;;;31.98;21.40;;;-0.10;99.90;;;;;;4976383;28;20511;-70